UKKK/IEV METAR and TAF weather

Enter ICAO airport designator
Station Type Date Time Source
UKKK METAR 2021/09/25 03:30 UTC NOAA

UKKK 250330Z 30005MPS 9999 BKN011 10/08 Q1008 R26/290156 NOSIG


Station Type Date Time Source
UKKK Decoded METAR 2021/09/25 03:30 UTC NOAA

Kyiv, Ukraine (UKKK) 50-24N 030-34E 167M
Sep 24, 2021 - 11:30 PM EDT / 2021.09.25 0330 UTC
Wind: from the WNW (300 degrees) at 11 MPH (10 KT):0
Visibility: greater than 7 mile(s):0
Sky conditions: mostly cloudy
Temperature: 50 F (10 C)
Dew Point: 46 F (8 C)
Relative Humidity: 87%
Pressure (altimeter): 29.77 in. Hg (1008 hPa)
ob: UKKK 250330Z 30005MPS 9999 BKN011 10/08 Q1008 R26/290156 NOSIG
cycle: 3

Station Type Date Time Source
UKKK TAF 2021/09/24 18:18 UTC NOAA

TAF TAF UKKK 241710Z 2418/2518 29005G10MPS 9999 SCT025
TEMPO 2418/2424 30007G14MPS 2100 -SHRA BKN007 SCT020CB

Example: see airport list